Time;durP1;ratioP1;P1;durP2;ratioP2;P2;SDS_P1;SDS_P2;PMS_P1;PMS_P2;Temp;Humidity;BMP_temperature;BMP_pressure;BME280_temperature;BME280_humidity;BME280_pressure;Samples;Min_cycle;Max_cycle;Signal;HPM_P1;HPM_P2
2021/01/01 00:00:32;;;;;;;34.03;28.47;;;;;;;5.67;67.92;100074.09;5020415;28;20178;-70
2021/01/01 00:03:00;;;;;;;37.37;29.50;;;;;;;5.67;67.31;100066.31;5020454;28;20171;-71
2021/01/01 00:05:27;;;;;;;41.20;30.90;;;;;;;5.08;69.87;100073.78;5020747;28;20167;-69
2021/01/01 00:07:53;;;;;;;41.10;30.57;;;;;;;5.30;68.72;100065.59;5020314;28;20422;-70
2021/01/01 00:10:18;;;;;;;39.73;30.83;;;;;;;5.78;67.77;100068.22;5020194;28;20412;-70
2021/01/01 00:12:43;;;;;;;42.50;31.10;;;;;;;5.96;67.13;100076.31;5020528;28;20186;-69
2021/01/01 00:15:09;;;;;;;42.47;31.57;;;;;;;5.65;67.65;100068.00;5025008;28;20189;-71
2021/01/01 00:17:34;;;;;;;38.53;32.47;;;;;;;5.44;68.74;100075.34;5029515;28;20226;-71
2021/01/01 00:20:00;;;;;;;41.13;31.27;;;;;;;5.17;68.48;100079.13;5020452;28;20854;-69
2021/01/01 00:22:25;;;;;;;37.07;29.83;;;;;;;5.25;68.77;100079.28;5020014;28;20217;-74
2021/01/01 00:24:50;;;;;;;47.57;34.70;;;;;;;5.38;68.00;100073.50;5020136;28;20223;-70
2021/01/01 00:27:16;;;;;;;36.00;28.43;;;;;;;5.23;67.92;100079.25;5036900;28;20174;-70
2021/01/01 00:29:42;;;;;;;40.87;31.87;;;;;;;5.46;67.70;100086.59;5039625;28;20450;-71
2021/01/01 00:32:07;;;;;;;58.70;38.07;;;;;;;5.62;67.35;100075.72;5037365;28;20417;-68
2021/01/01 00:34:33;;;;;;;42.13;30.43;;;;;;;5.57;67.69;100075.63;5040009;28;20257;-69
2021/01/01 00:36:59;;;;;;;32.30;25.50;;;;;;;5.54;67.48;100077.28;5021999;28;20217;-70
2021/01/01 00:39:24;;;;;;;33.90;27.30;;;;;;;5.84;67.23;100081.28;5019571;28;20182;-71
2021/01/01 00:41:49;;;;;;;33.60;26.80;;;;;;;5.61;67.01;100079.13;5020249;28;20262;-69
2021/01/01 00:44:15;;;;;;;33.20;25.33;;;;;;;5.68;66.77;100082.69;5019885;28;20552;-69
2021/01/01 00:46:40;;;;;;;28.60;22.50;;;;;;;5.60;67.17;100082.53;5019879;28;20166;-70
2021/01/01 00:49:05;;;;;;;35.90;24.47;;;;;;;5.64;66.60;100078.31;5020124;28;20171;-72
2021/01/01 00:51:32;;;;;;;29.90;22.77;;;;;;;5.44;66.97;100085.69;5019602;28;20167;-69
2021/01/01 00:54:01;;;;;;;23.27;18.40;;;;;;;5.76;66.95;100075.97;5019624;28;20167;-70
2021/01/01 00:56:27;;;;;;;26.33;20.40;;;;;;;5.73;65.75;100084.53;5019713;28;20418;-69
2021/01/01 00:58:54;;;;;;;23.73;18.70;;;;;;;5.19;68.34;100080.88;5019499;28;20418;-70
2021/01/01 01:01:24;;;;;;;23.90;19.30;;;;;;;5.40;67.01;100077.88;5002365;28;20489;-68
2021/01/01 01:03:50;;;;;;;25.93;19.80;;;;;;;5.78;65.83;100076.88;5020093;28;20883;-70
2021/01/01 01:06:15;;;;;;;24.40;20.60;;;;;;;5.25;66.78;100077.56;5019545;28;20426;-69
2021/01/01 01:08:41;;;;;;;28.43;20.80;;;;;;;5.68;66.48;100070.66;5019582;28;20414;-70
2021/01/01 01:11:07;;;;;;;28.80;21.90;;;;;;;5.57;65.55;100073.03;5019532;28;20163;-69
2021/01/01 01:13:32;;;;;;;28.43;23.13;;;;;;;5.53;66.39;100065.19;5019393;28;20457;-70
2021/01/01 01:15:57;;;;;;;29.07;22.77;;;;;;;5.81;64.58;100068.28;5019174;28;20171;-70
2021/01/01 01:18:23;;;;;;;33.63;25.33;;;;;;;5.43;66.08;100073.63;5019504;28;20436;-70
2021/01/01 01:20:48;;;;;;;35.93;28.20;;;;;;;5.59;65.52;100077.34;5019079;28;20183;-70
2021/01/01 01:23:13;;;;;;;41.43;31.37;;;;;;;5.52;65.49;100069.50;5019071;28;20175;-69
2021/01/01 01:25:39;;;;;;;39.20;28.70;;;;;;;5.62;65.28;100085.19;5018811;28;20227;-70
2021/01/01 01:28:04;;;;;;;24.77;21.30;;;;;;;5.51;65.16;100072.91;5018801;28;20171;-69
2021/01/01 01:30:30;;;;;;;28.33;22.47;;;;;;;5.76;64.69;100067.34;5019048;28;20458;-71
2021/01/01 01:32:55;;;;;;;22.17;17.73;;;;;;;5.63;65.35;100077.47;5017441;28;20199;-71
2021/01/01 01:35:22;;;;;;;23.10;18.07;;;;;;;5.49;65.73;100079.75;5018639;28;20646;-70
2021/01/01 01:37:47;;;;;;;23.63;18.80;;;;;;;5.69;64.54;100074.97;5019012;28;20234;-71
2021/01/01 01:40:12;;;;;;;23.73;17.03;;;;;;;5.33;65.19;100085.47;5017808;28;20454;-69
2021/01/01 01:42:38;;;;;;;22.57;18.50;;;;;;;5.73;64.92;100083.66;5018838;28;20159;-70
2021/01/01 01:45:05;;;;;;;23.40;17.43;;;;;;;5.53;65.56;100085.88;5018893;28;20194;-69
2021/01/01 01:47:30;;;;;;;20.40;16.70;;;;;;;5.53;64.97;100088.44;5017881;28;20253;-70
2021/01/01 01:49:56;;;;;;;21.97;17.67;;;;;;;5.57;65.10;100085.09;5017858;28;20548;-70
2021/01/01 01:52:22;;;;;;;21.90;17.07;;;;;;;5.58;66.84;100081.66;5018941;28;20198;-70
2021/01/01 01:54:47;;;;;;;23.67;16.87;;;;;;;5.47;65.94;100089.22;5018659;28;20167;-69
2021/01/01 01:57:13;;;;;;;22.33;17.80;;;;;;;5.57;65.81;100088.56;5018717;28;20198;-71
2021/01/01 01:59:39;;;;;;;26.43;17.00;;;;;;;5.10;67.38;100093.63;5019258;28;20218;-70
2021/01/01 02:02:05;;;;;;;23.03;17.47;;;;;;;5.68;64.91;100096.53;5018981;28;20214;-70
2021/01/01 02:04:30;;;;;;;21.93;17.20;;;;;;;5.49;66.37;100094.41;5018690;28;20446;-71
2021/01/01 02:06:56;;;;;;;24.73;17.93;;;;;;;5.55;66.09;100102.28;5017970;28;20225;-71
2021/01/01 02:09:24;;;;;;;22.97;18.37;;;;;;;5.22;66.61;100098.16;5018075;28;20178;-70
2021/01/01 02:11:50;;;;;;;21.00;17.60;;;;;;;5.36;66.81;100098.47;5018429;28;20693;-70
2021/01/01 02:14:19;;;;;;;21.10;16.90;;;;;;;4.88;67.55;100105.19;5017871;28;20402;-70
2021/01/01 02:16:44;;;;;;;23.73;18.37;;;;;;;5.47;66.80;100103.88;5017370;28;20199;-70
2021/01/01 02:19:13;;;;;;;25.50;18.77;;;;;;;5.24;67.28;100106.84;5017772;28;20508;-69
2021/01/01 02:21:41;;;;;;;24.03;17.93;;;;;;;5.10;67.38;100108.25;5018782;28;20163;-70
2021/01/01 02:24:10;;;;;;;25.00;19.00;;;;;;;5.84;64.63;100101.97;5017399;28;20472;-70
2021/01/01 02:26:39;;;;;;;24.47;18.63;;;;;;;5.04;67.04;100099.50;5018002;28;20418;-69
2021/01/01 02:29:04;;;;;;;24.20;17.90;;;;;;;5.25;67.41;100111.16;5018099;28;20472;-69
2021/01/01 02:31:30;;;;;;;20.80;16.80;;;;;;;5.46;65.99;100102.97;5017918;28;20692;-71
2021/01/01 02:33:55;;;;;;;22.80;17.40;;;;;;;5.31;66.73;100106.13;5018016;28;20175;-71
2021/01/01 02:36:20;;;;;;;23.17;17.80;;;;;;;5.56;66.03;100106.59;5018199;28;20419;-71
2021/01/01 02:38:46;;;;;;;26.10;19.30;;;;;;;5.62;65.71;100111.03;5017850;28;20166;-71
2021/01/01 02:41:12;;;;;;;20.97;16.70;;;;;;;5.64;65.52;100105.06;5017816;28;20177;-70
2021/01/01 02:43:38;;;;;;;21.20;16.40;;;;;;;5.20;66.68;100107.63;5018025;28;20444;-70
2021/01/01 02:46:04;;;;;;;22.60;17.87;;;;;;;5.23;67.53;100115.41;5016792;28;20191;-69
2021/01/01 02:48:29;;;;;;;24.60;17.90;;;;;;;5.06;67.96;100113.34;5017843;28;20479;-69
2021/01/01 02:50:54;;;;;;;23.10;18.00;;;;;;;5.54;66.33;100116.91;5017879;28;20170;-70
2021/01/01 02:53:20;;;;;;;25.77;19.47;;;;;;;5.57;66.56;100113.53;5017881;28;20237;-69
2021/01/01 02:55:45;;;;;;;28.40;17.33;;;;;;;5.53;67.02;100112.63;5017709;28;20167;-69
2021/01/01 02:58:10;;;;;;;23.47;18.03;;;;;;;5.49;66.15;100110.78;5017793;28;20191;-69
2021/01/01 03:00:39;;;;;;;23.70;17.43;;;;;;;5.63;66.90;100108.50;5017543;28;20566;-69
2021/01/01 03:03:04;;;;;;;24.90;18.90;;;;;;;5.34;66.21;100110.47;5016846;28;20270;-70
2021/01/01 03:05:30;;;;;;;21.77;17.10;;;;;;;5.24;68.00;100104.25;5000889;28;20761;-68
2021/01/01 03:07:55;;;;;;;27.50;17.90;;;;;;;5.56;66.38;100109.19;5017686;28;20442;-69
2021/01/01 03:10:21;;;;;;;25.50;19.47;;;;;;;5.38;66.71;100107.97;5017414;28;20261;-70
2021/01/01 03:12:46;;;;;;;25.57;19.03;;;;;;;5.20;67.57;100112.78;5017888;28;20228;-69
2021/01/01 03:15:12;;;;;;;26.43;19.00;;;;;;;5.28;67.99;100111.22;5017430;28;20233;-69
2021/01/01 03:17:37;;;;;;;33.77;20.87;;;;;;;5.48;66.60;100111.66;5017403;28;20446;-69
2021/01/01 03:20:04;;;;;;;25.53;20.03;;;;;;;5.72;67.16;100108.66;5017496;28;20840;-69
2021/01/01 03:22:30;;;;;;;28.30;20.13;;;;;;;5.29;67.32;100112.97;5017368;28;20182;-69
2021/01/01 03:24:55;;;;;;;25.50;18.33;;;;;;;5.66;68.60;100110.25;5017290;28;20468;-69
2021/01/01 03:27:23;;;;;;;26.17;19.80;;;;;;;5.28;67.67;100106.06;5017667;28;20541;-69
2021/01/01 03:29:48;;;;;;;28.80;19.20;;;;;;;5.38;67.97;100107.97;5017120;28;20182;-70
2021/01/01 03:32:13;;;;;;;26.37;19.00;;;;;;;5.30;67.03;100108.69;5017278;28;20422;-70
2021/01/01 03:34:40;;;;;;;26.37;18.30;;;;;;;5.42;67.98;100108.06;5017651;28;20189;-70
2021/01/01 03:37:05;;;;;;;23.73;18.60;;;;;;;5.56;67.46;100104.91;5016510;28;20191;-70
2021/01/01 03:39:30;;;;;;;28.37;19.50;;;;;;;5.47;66.91;100109.03;5017205;28;20425;-69
2021/01/01 03:41:55;;;;;;;27.27;18.67;;;;;;;5.37;67.70;100102.78;5017592;28;20172;-69
2021/01/01 03:44:21;;;;;;;23.70;19.30;;;;;;;5.14;68.08;100102.31;5017250;28;20245;-70
2021/01/01 03:46:46;;;;;;;26.90;20.00;;;;;;;5.68;66.77;100101.69;5017163;28;20175;-69
2021/01/01 03:49:11;;;;;;;23.80;19.20;;;;;;;5.43;66.88;100108.09;5017513;28;20186;-68
2021/01/01 03:51:37;;;;;;;27.37;20.30;;;;;;;5.55;67.21;100103.16;5017067;28;20186;-70
2021/01/01 03:54:02;;;;;;;25.77;19.73;;;;;;;5.73;66.09;100100.03;5017166;28;20561;-69
2021/01/01 03:56:30;;;;;;;28.80;21.80;;;;;;;5.68;66.50;100105.97;5018077;28;20254;-70
2021/01/01 03:58:56;;;;;;;27.97;20.80;;;;;;;5.32;67.39;100107.00;5020681;28;20241;-70
2021/01/01 04:01:21;;;;;;;25.13;18.70;;;;;;;5.36;68.33;100109.66;5020757;28;20422;-70
2021/01/01 04:03:46;;;;;;;26.97;20.67;;;;;;;5.21;68.27;100110.22;5020944;28;20163;-69
2021/01/01 04:06:12;;;;;;;26.17;19.60;;;;;;;5.30;69.02;100106.09;5020662;28;20171;-69
2021/01/01 04:08:40;;;;;;;26.03;18.70;;;;;;;4.87;69.45;100112.06;5020760;28;20181;-69
2021/01/01 04:11:05;;;;;;;27.07;20.50;;;;;;;5.25;68.44;100111.16;5019820;28;20173;-69
2021/01/01 04:13:31;;;;;;;27.37;20.97;;;;;;;5.17;67.78;100112.72;5019198;28;20418;-69
2021/01/01 04:15:57;;;;;;;24.73;19.00;;;;;;;5.29;68.14;100107.81;5019883;28;20213;-70
2021/01/01 04:18:23;;;;;;;28.80;20.00;;;;;;;5.18;68.57;100105.00;5019190;28;20191;-69
2021/01/01 04:20:48;;;;;;;29.50;21.73;;;;;;;5.20;68.41;100115.38;5019239;28;20430;-69
2021/01/01 04:23:16;;;;;;;27.27;21.10;;;;;;;5.38;67.59;100115.72;5019450;28;20179;-68
2021/01/01 04:25:42;;;;;;;30.43;21.97;;;;;;;5.30;67.12;100117.28;5019426;28;20230;-69
2021/01/01 04:28:07;;;;;;;27.30;20.93;;;;;;;5.70;66.02;100115.50;5025771;28;20696;-69
2021/01/01 04:30:33;;;;;;;27.57;21.43;;;;;;;5.14;68.27;100117.81;5029444;28;20218;-70
2021/01/01 04:32:58;;;;;;;28.73;21.70;;;;;;;5.45;67.75;100116.72;5027641;28;20189;-68
2021/01/01 04:35:23;;;;;;;27.60;21.80;;;;;;;5.26;67.75;100115.47;5030906;28;20190;-69
2021/01/01 04:37:49;;;;;;;34.10;22.80;;;;;;;5.34;67.52;100113.91;5032065;28;20202;-69
2021/01/01 04:40:15;;;;;;;29.87;22.10;;;;;;;5.53;67.45;100122.06;5028439;28;20178;-69
2021/01/01 04:42:40;;;;;;;33.13;22.50;;;;;;;5.29;67.98;100120.75;5029637;28;20449;-70
2021/01/01 04:45:06;;;;;;;28.90;22.03;;;;;;;5.39;66.89;100120.06;5030143;28;20464;-70
2021/01/01 04:47:32;;;;;;;31.43;22.77;;;;;;;5.29;66.97;100120.75;5030547;28;20228;-69
2021/01/01 04:50:01;;;;;;;33.73;24.40;;;;;;;5.25;68.01;100118.03;5038726;28;20860;-70
2021/01/01 04:52:31;;;;;;;34.47;24.40;;;;;;;5.31;67.65;100120.75;5037477;28;20442;-69
2021/01/01 04:54:56;;;;;;;33.60;23.50;;;;;;;5.26;67.24;100122.38;5021560;28;20690;-69
2021/01/01 04:57:21;;;;;;;29.47;24.00;;;;;;;4.94;68.60;100123.41;5037128;28;20510;-70
2021/01/01 04:59:47;;;;;;;31.30;24.23;;;;;;;5.33;67.28;100113.91;5038341;28;20178;-69
2021/01/01 05:02:12;;;;;;;32.97;24.13;;;;;;;5.25;67.29;100115.44;5039134;28;20181;-70
2021/01/01 05:04:37;;;;;;;34.30;23.93;;;;;;;5.46;67.06;100122.78;5039569;28;20171;-70
2021/01/01 05:07:03;;;;;;;33.17;23.00;;;;;;;5.57;67.17;100113.53;5039677;28;20201;-70
2021/01/01 05:09:28;;;;;;;33.53;24.43;;;;;;;5.57;67.32;100123.88;5037885;28;20452;-69
2021/01/01 05:12:08;;;;;;;32.00;22.93;;;;;;;5.34;67.52;100121.69;5039258;28;20232;-69
2021/01/01 05:14:33;;;;;;;29.53;22.83;;;;;;;4.93;69.89;100129.41;5039017;28;20188;-70
2021/01/01 05:16:58;;;;;;;33.73;25.10;;;;;;;5.35;67.75;100130.31;5038996;28;20476;-70
2021/01/01 05:19:37;;;;;;;32.50;24.50;;;;;;;5.26;68.31;100130.97;5038559;28;20277;-70
2021/01/01 05:22:04;;;;;;;31.93;23.67;;;;;;;5.14;70.06;100135.88;5038364;28;20166;-70
2021/01/01 05:24:35;;;;;;;37.27;25.77;;;;;;;5.32;67.84;100131.13;5038882;28;20457;-70
2021/01/01 05:27:10;;;;;;;33.37;25.10;;;;;;;5.31;68.26;100128.50;5038956;28;20405;-70
2021/01/01 05:29:39;;;;;;;34.90;24.40;;;;;;;5.58;68.01;100133.38;5038661;28;20492;-70
2021/01/01 05:32:08;;;;;;;36.97;24.60;;;;;;;5.17;68.32;100129.09;5038062;28;20421;-68
2021/01/01 05:34:41;;;;;;;32.73;25.07;;;;;;;5.48;67.68;100140.09;5038767;28;20417;-69
2021/01/01 05:37:07;;;;;;;35.30;25.23;;;;;;;5.30;68.88;100131.94;5038679;28;20702;-70
2021/01/01 05:39:32;;;;;;;38.40;27.33;;;;;;;5.18;69.10;100141.19;5037799;28;20428;-70
2021/01/01 05:41:57;;;;;;;35.00;26.50;;;;;;;5.37;68.87;100136.38;5039068;28;20151;-70
2021/01/01 05:44:28;;;;;;;43.33;28.37;;;;;;;5.10;69.73;100141.84;5038622;28;20566;-70
2021/01/01 05:47:07;;;;;;;39.70;27.17;;;;;;;4.53;72.87;100138.78;5038477;28;20551;-69
2021/01/01 05:49:36;;;;;;;39.80;26.57;;;;;;;4.78;70.83;100149.75;5038308;28;20874;-70
2021/01/01 05:52:19;;;;;;;36.93;25.27;;;;;;;5.25;69.18;100144.78;5038348;28;20574;-69
2021/01/01 05:54:49;;;;;;;37.03;26.30;;;;;;;5.17;69.83;100149.75;5038286;28;20441;-70
2021/01/01 05:57:15;;;;;;;39.07;27.13;;;;;;;4.92;70.11;100148.31;5038325;28;20461;-70
2021/01/01 05:59:42;;;;;;;38.37;25.70;;;;;;;5.02;69.97;100152.88;5038230;28;20425;-70
2021/01/01 06:02:09;;;;;;;37.10;26.33;;;;;;;4.88;70.17;100156.84;5038188;28;20492;-71
2021/01/01 06:04:35;;;;;;;37.97;26.43;;;;;;;5.06;70.11;100157.28;5037629;28;20534;-70
2021/01/01 06:07:02;;;;;;;40.57;26.40;;;;;;;4.91;69.97;100156.91;5038329;28;20409;-70
2021/01/01 06:09:29;;;;;;;34.23;24.00;;;;;;;5.43;68.31;100162.38;5037868;28;20191;-70
2021/01/01 06:12:04;;;;;;;41.10;27.27;;;;;;;4.99;69.47;100157.97;5038262;28;20409;-69
2021/01/01 06:14:32;;;;;;;41.23;26.10;;;;;;;4.66;71.13;100176.13;5037822;28;20417;-69
2021/01/01 06:17:11;;;;;;;39.50;27.07;;;;;;;5.01;70.84;100164.03;5037957;28;20559;-70
2021/01/01 06:19:53;;;;;;;38.80;27.63;;;;;;;5.13;69.85;100166.03;5037667;28;20401;-70
2021/01/01 06:22:24;;;;;;;40.00;27.43;;;;;;;4.94;70.50;100167.34;5038076;28;20660;-71
2021/01/01 06:24:54;;;;;;;41.07;27.37;;;;;;;4.78;71.78;100176.41;5037778;28;20732;-70
2021/01/01 06:27:23;;;;;;;35.33;27.10;;;;;;;5.17;69.81;100175.59;5037838;28;20413;-69
2021/01/01 06:30:00;;;;;;;37.67;27.37;;;;;;;5.11;69.92;100179.75;5037013;28;20467;-70
2021/01/01 06:32:25;;;;;;;35.40;25.80;;;;;;;5.28;69.72;100186.19;5037853;28;20444;-70
2021/01/01 06:34:52;;;;;;;34.03;25.13;;;;;;;5.39;69.28;100186.41;5037772;28;20906;-69
2021/01/01 06:37:47;;;;;;;36.17;24.93;;;;;;;5.37;69.12;100194.13;5037695;28;20522;-69
2021/01/01 06:40:21;;;;;;;40.43;27.10;;;;;;;5.66;67.78;100188.69;5037547;28;20684;-69
2021/01/01 06:42:51;;;;;;;38.70;26.67;;;;;;;5.74;67.90;100194.91;5037627;28;20440;-70
2021/01/01 06:45:42;;;;;;;35.33;25.47;;;;;;;5.60;68.22;100191.16;5037569;28;20408;-69
2021/01/01 06:48:20;;;;;;;39.40;26.87;;;;;;;5.42;68.43;100206.28;5037628;28;20504;-69
2021/01/01 06:50:49;;;;;;;37.17;27.03;;;;;;;5.62;68.16;100192.06;5037418;28;20484;-70
2021/01/01 06:53:15;;;;;;;42.67;27.20;;;;;;;5.38;68.97;100203.63;5037450;28;20459;-69
2021/01/01 06:55:48;;;;;;;38.57;25.00;;;;;;;4.92;69.71;100209.47;5037288;28;20429;-70
2021/01/01 06:58:24;;;;;;;42.97;27.20;;;;;;;5.11;70.61;100203.00;5037130;28;20475;-71
2021/01/01 07:00:49;;;;;;;38.30;26.57;;;;;;;5.34;69.12;100199.22;5037153;28;20420;-70
2021/01/01 07:03:30;;;;;;;35.60;25.63;;;;;;;5.16;69.98;100204.00;5037259;28;20415;-70
2021/01/01 07:05:57;;;;;;;38.67;25.63;;;;;;;5.09;69.94;100205.56;5037357;28;20552;-70
2021/01/01 07:11:17;;;;;;;41.90;25.47;;;;;;;4.84;70.76;100212.75;5037160;28;20697;-70
2021/01/01 07:13:44;;;;;;;38.40;26.23;;;;;;;4.81;71.11;100212.63;5037127;28;20408;-70
2021/01/01 07:16:09;;;;;;;38.57;25.90;;;;;;;4.97;70.55;100218.19;5036410;28;20420;-70
2021/01/01 07:18:35;;;;;;;37.77;26.40;;;;;;;4.77;72.00;100220.28;5037070;28;21056;-70
2021/01/01 07:21:01;;;;;;;43.53;26.63;;;;;;;5.10;70.05;100224.50;5037494;28;20402;-70
2021/01/01 07:23:27;;;;;;;39.30;25.07;;;;;;;4.86;71.24;100221.38;5036961;28;20170;-69
2021/01/01 07:25:53;;;;;;;39.13;27.07;;;;;;;5.22;70.43;100217.03;5037015;28;20773;-69
2021/01/01 07:28:18;;;;;;;38.67;26.83;;;;;;;5.08;70.19;100221.91;5037446;28;20437;-69
2021/01/01 07:30:44;;;;;;;45.07;28.17;;;;;;;4.76;70.50;100234.03;5036982;28;20169;-70
2021/01/01 07:33:09;;;;;;;42.70;28.97;;;;;;;4.70;71.41;100230.44;5040546;28;20536;-69
2021/01/01 07:35:36;;;;;;;44.50;26.97;;;;;;;4.89;70.55;100230.91;5041288;28;20162;-70
2021/01/01 07:38:03;;;;;;;44.27;27.23;;;;;;;4.49;72.63;100235.97;5040799;28;20217;-70
2021/01/01 07:40:28;;;;;;;40.53;29.00;;;;;;;4.91;70.49;100242.13;5039863;28;20436;-70
2021/01/01 07:42:54;;;;;;;43.57;27.20;;;;;;;4.94;70.35;100244.81;5041322;28;20424;-70
2021/01/01 07:45:20;;;;;;;45.80;29.90;;;;;;;4.96;70.16;100235.38;5040727;28;20170;-70
2021/01/01 07:47:46;;;;;;;39.00;26.63;;;;;;;4.81;70.88;100243.63;5040834;28;20170;-69
2021/01/01 07:50:16;;;;;;;38.40;27.40;;;;;;;4.96;70.38;100242.28;5041083;28;20480;-69
2021/01/01 07:52:42;;;;;;;37.87;27.13;;;;;;;4.52;70.97;100248.06;5040743;28;20425;-70
2021/01/01 07:55:08;;;;;;;38.93;26.30;;;;;;;4.51;73.13;100252.34;5040370;28;20713;-71
2021/01/01 07:57:35;;;;;;;41.63;28.40;;;;;;;4.79;71.51;100250.47;5040723;28;20467;-70
2021/01/01 08:00:00;;;;;;;40.83;27.30;;;;;;;5.27;68.70;100254.19;5039585;28;20418;-70
2021/01/01 08:02:26;;;;;;;44.73;29.03;;;;;;;4.81;69.92;100253.09;5040252;28;20504;-70
2021/01/01 08:04:51;;;;;;;43.07;28.80;;;;;;;4.91;71.29;100252.47;5023637;28;20198;-70
2021/01/01 08:07:23;;;;;;;37.53;26.60;;;;;;;4.76;70.65;100259.84;5040457;28;20174;-69
2021/01/01 08:09:48;;;;;;;43.80;28.63;;;;;;;4.78;72.00;100265.94;5040182;28;20472;-70
2021/01/01 08:12:13;;;;;;;44.47;29.03;;;;;;;5.09;69.80;100258.94;5040600;28;20408;-70
2021/01/01 08:14:47;;;;;;;43.93;29.07;;;;;;;5.19;68.60;100272.09;5040330;28;20556;-69
2021/01/01 08:17:29;;;;;;;40.27;27.60;;;;;;;4.91;71.01;100272.28;5040201;28;20474;-70
2021/01/01 08:19:58;;;;;;;35.23;26.90;;;;;;;4.88;70.43;100278.25;5039825;28;20532;-69
2021/01/01 08:22:30;;;;;;;41.57;26.53;;;;;;;4.76;71.47;100275.34;5039933;28;20507;-70
2021/01/01 08:24:56;;;;;;;36.37;25.23;;;;;;;5.03;69.51;100277.75;5039664;28;20921;-70
2021/01/01 08:27:23;;;;;;;37.00;27.87;;;;;;;4.74;71.19;100280.47;5039285;28;20734;-69
2021/01/01 08:29:49;;;;;;;38.13;27.10;;;;;;;5.15;69.53;100275.44;5039555;28;20421;-70
2021/01/01 08:32:19;;;;;;;38.00;26.63;;;;;;;5.14;69.72;100281.47;5040031;28;20413;-69
2021/01/01 08:34:49;;;;;;;36.80;24.80;;;;;;;4.57;71.68;100272.28;5040631;28;20412;-69
2021/01/01 08:37:22;;;;;;;36.70;25.10;;;;;;;4.53;71.14;100280.78;5040382;28;20468;-70
2021/01/01 08:39:47;;;;;;;37.90;25.63;;;;;;;4.62;71.63;100286.19;5040176;28;20417;-70
2021/01/01 08:42:20;;;;;;;35.40;24.77;;;;;;;4.99;71.42;100274.22;5040508;28;20412;-69
2021/01/01 08:44:46;;;;;;;39.43;25.47;;;;;;;4.91;70.04;100280.03;5040088;28;20174;-70
2021/01/01 08:47:11;;;;;;;39.10;25.90;;;;;;;4.96;70.06;100279.28;5039730;28;20424;-70
2021/01/01 08:49:36;;;;;;;40.07;27.90;;;;;;;4.76;71.81;100283.09;5039941;28;20163;-70
2021/01/01 08:52:12;;;;;;;41.37;26.30;;;;;;;4.77;71.12;100292.59;5039827;28;20178;-70
2021/01/01 08:54:37;;;;;;;40.83;24.43;;;;;;;5.08;70.72;100302.00;5039730;28;20205;-69
2021/01/01 08:57:03;;;;;;;38.63;26.37;;;;;;;4.89;70.06;100298.06;5039492;28;20890;-71
2021/01/01 08:59:29;;;;;;;42.10;26.40;;;;;;;4.93;70.69;100297.31;5039698;28;20550;-70
2021/01/01 09:01:55;;;;;;;39.87;25.17;;;;;;;5.02;71.16;100289.81;5040015;28;20440;-70
2021/01/01 09:04:28;;;;;;;37.50;25.63;;;;;;;5.40;69.91;100292.44;5039659;28;20417;-70
2021/01/01 09:06:54;;;;;;;35.60;26.80;;;;;;;5.49;68.10;100299.50;5039429;28;20177;-70
2021/01/01 09:09:27;;;;;;;34.47;25.30;;;;;;;5.86;66.78;100290.00;5039536;28;20484;-71
2021/01/01 09:11:53;;;;;;;35.23;24.17;;;;;;;5.68;67.94;100300.81;5039609;28;20807;-70
2021/01/01 09:14:18;;;;;;;34.67;24.40;;;;;;;5.42;68.54;100302.81;5038262;28;20432;-70
2021/01/01 09:16:43;;;;;;;36.63;25.97;;;;;;;5.38;68.96;100306.16;5032449;28;20545;-71
2021/01/01 09:19:09;;;;;;;35.90;24.90;;;;;;;5.38;68.47;100309.59;5037783;28;20197;-70
2021/01/01 09:21:35;;;;;;;35.33;25.47;;;;;;;5.06;69.40;100320.03;5031176;28;20212;-72
2021/01/01 09:24:00;;;;;;;35.20;25.40;;;;;;;4.83;70.75;100313.41;5036362;28;20426;-70
2021/01/01 09:26:27;;;;;;;34.07;25.47;;;;;;;5.15;68.96;100311.63;5028656;28;20446;-70
2021/01/01 09:29:10;;;;;;;37.43;26.73;;;;;;;5.07;69.78;100307.97;5039052;28;20663;-70
2021/01/01 09:31:37;;;;;;;37.67;25.03;;;;;;;5.28;68.52;100314.53;5038142;28;20507;-68
2021/01/01 09:34:05;;;;;;;37.20;26.83;;;;;;;5.21;68.45;100310.94;5037750;28;20428;-69
2021/01/01 09:36:40;;;;;;;33.30;24.97;;;;;;;5.31;68.42;100315.47;5029682;28;20572;-69
2021/01/01 09:39:07;;;;;;;34.67;24.50;;;;;;;5.35;68.16;100311.25;5038323;28;20424;-70
2021/01/01 09:41:33;;;;;;;38.07;26.50;;;;;;;5.63;67.04;100314.47;5038433;28;20679;-70
2021/01/01 09:43:58;;;;;;;39.20;26.57;;;;;;;5.46;67.96;100320.13;5038465;28;20428;-69
2021/01/01 09:46:24;;;;;;;35.73;25.63;;;;;;;4.97;69.60;100326.69;5038009;28;20556;-70
2021/01/01 09:48:50;;;;;;;38.17;26.63;;;;;;;5.12;68.97;100328.78;5038335;28;20178;-69
2021/01/01 09:51:15;;;;;;;37.77;26.13;;;;;;;5.25;68.33;100328.25;5038035;28;20458;-70
2021/01/01 09:53:40;;;;;;;35.53;24.53;;;;;;;4.74;69.76;100328.69;5038283;28;20248;-69
2021/01/01 09:56:06;;;;;;;33.13;23.67;;;;;;;4.78;70.53;100320.19;5037510;28;20177;-70
2021/01/01 09:58:31;;;;;;;33.93;24.40;;;;;;;5.49;67.86;100329.66;5038157;28;20216;-68
2021/01/01 10:00:56;;;;;;;33.97;24.80;;;;;;;5.42;66.67;100320.03;5038322;28;20228;-68
2021/01/01 10:03:22;;;;;;;35.67;25.00;;;;;;;5.53;66.51;100327.22;5037996;28;20170;-68
2021/01/01 10:05:47;;;;;;;33.57;24.80;;;;;;;5.34;67.95;100323.28;5038051;28;20185;-70
2021/01/01 10:08:14;;;;;;;33.83;25.20;;;;;;;5.49;68.36;100321.91;5038299;28;20197;-70
2021/01/01 10:10:39;;;;;;;35.90;25.83;;;;;;;5.50;67.07;100328.84;5037663;28;20178;-70
2021/01/01 10:13:05;;;;;;;34.10;24.43;;;;;;;6.15;65.22;100325.13;5037738;28;20884;-70
2021/01/01 10:15:30;;;;;;;33.33;24.33;;;;;;;6.35;64.38;100328.13;5038539;28;20194;-70
2021/01/01 10:17:55;;;;;;;34.90;24.17;;;;;;;6.38;63.60;100331.63;5037805;28;20281;-71
2021/01/01 10:20:20;;;;;;;30.87;23.77;;;;;;;5.86;64.86;100327.94;5037751;28;20446;-70
2021/01/01 10:22:46;;;;;;;36.83;28.03;;;;;;;5.61;66.36;100332.53;5038185;28;20192;-70
2021/01/01 10:25:11;;;;;;;35.53;25.27;;;;;;;5.79;65.82;100323.44;5037592;28;20218;-71
2021/01/01 10:27:37;;;;;;;34.10;25.87;;;;;;;6.15;64.99;100326.00;5037565;28;20501;-71
2021/01/01 10:30:07;;;;;;;34.40;25.33;;;;;;;6.24;64.03;100330.50;5037754;28;20552;-70
2021/01/01 10:32:32;;;;;;;34.67;25.77;;;;;;;6.19;64.11;100334.72;5037591;28;20445;-72
2021/01/01 10:34:58;;;;;;;34.23;24.40;;;;;;;6.51;63.57;100322.41;5037538;28;20394;-70
2021/01/01 10:37:23;;;;;;;33.07;26.00;;;;;;;6.65;62.99;100326.97;5037733;28;20270;-70
2021/01/01 10:39:48;;;;;;;30.93;23.60;;;;;;;6.27;64.39;100322.78;5037334;28;20257;-69
2021/01/01 10:42:13;;;;;;;30.00;22.30;;;;;;;6.02;65.31;100321.41;5037410;28;20261;-71
2021/01/01 10:44:39;;;;;;;34.63;24.80;;;;;;;6.24;65.72;100327.91;5037743;28;20172;-70
2021/01/01 10:47:04;;;;;;;34.20;26.17;;;;;;;6.47;63.87;100327.47;5037401;28;20249;-70
2021/01/01 10:49:30;;;;;;;30.13;22.80;;;;;;;6.52;63.60;100324.16;5037170;28;20195;-70
2021/01/01 10:51:58;;;;;;;31.10;23.60;;;;;;;6.56;63.50;100328.56;5037657;28;20181;-71
2021/01/01 10:54:24;;;;;;;31.17;22.90;;;;;;;6.42;64.46;100318.78;5036279;28;20591;-70
2021/01/01 10:56:49;;;;;;;33.80;23.30;;;;;;;6.17;65.08;100326.03;5037210;28;20457;-70
2021/01/01 10:59:15;;;;;;;32.60;24.17;;;;;;;6.36;64.72;100319.50;5037520;28;20539;-69
2021/01/01 11:01:40;;;;;;;35.47;25.57;;;;;;;6.34;64.67;100324.66;5034443;28;20209;-70
2021/01/01 11:04:05;;;;;;;30.83;24.10;;;;;;;6.20;65.78;100329.56;5027674;28;20175;-70
2021/01/01 11:06:35;;;;;;;32.60;23.80;;;;;;;6.33;65.61;100311.69;5028145;28;20487;-70
2021/01/01 11:09:00;;;;;;;39.37;26.50;;;;;;;6.48;64.89;100313.69;5026272;28;20208;-70
2021/01/01 11:11:26;;;;;;;37.00;25.30;;;;;;;6.44;65.78;100314.47;5029490;28;20420;-70
2021/01/01 11:13:53;;;;;;;35.93;22.30;;;;;;;6.18;67.34;100314.84;5022686;28;20254;-69
2021/01/01 12:24:59;;;;;;;28.20;21.17;;;;;;;6.86;64.71;100290.22;5031758;28;20745;-70
2021/01/01 12:27:27;;;;;;;31.70;24.37;;;;;;;7.11;64.08;100296.69;5032329;28;20438;-69